Time,TemperatureF,DewpointF,PressureIn,WindDirection,WindDirectionDegrees,WindSpeedMPH,WindSpeedGustMPH,Humidity,HourlyPrecipIn,Conditions,Clouds,dailyrainin,SoftwareType,DateUTC
2013-10-11 00:01:00,56.5,55.1,29.94,South,180,1.1,1.8,95,0.01,,,0.00,WUHU216HW,2013-10-11 04:01:00,
2013-10-11 00:02:00,56.5,55.1,29.94,South,180,1.1,1.8,95,0.01,,,0.00,WUHU216HW,2013-10-11 04:02:00,
2013-10-11 00:03:00,56.5,55.1,29.94,South,180,1.1,1.8,95,0.01,,,0.00,WUHU216HW,2013-10-11 04:03:00,
2013-10-11 00:04:00,56.5,55.1,29.94,South,180,0.7,1.6,95,0.01,,,0.00,WUHU216HW,2013-10-11 04:04:00,
2013-10-11 00:09:00,56.5,55.1,29.94,ESE,113,1.1,1.1,95,0.01,,,0.00,WUHU216HW,2013-10-11 04:09:00,
2013-10-11 00:14:00,56.5,55.1,29.94,SSW,203,1.8,1.8,95,0.01,,,0.00,WUHU216HW,2013-10-11 04:14:00,
2013-10-11 00:19:00,56.5,55.1,29.94,SSE,158,0.0,1.8,95,0.01,,,0.00,WUHU216HW,2013-10-11 04:19:00,
2013-10-11 00:24:00,56.5,55.1,29.94,SSW,203,0.4,0.9,95,0.01,,,0.00,WUHU216HW,2013-10-11 04:24:00,
2013-10-11 00:29:00,56.5,55.1,29.94,South,180,0.9,0.9,95,0.01,,,0.00,WUHU216HW,2013-10-11 04:29:00,
2013-10-11 00:34:00,56.5,55.1,29.94,SE,135,0.4,0.9,95,0.01,,,0.00,WUHU216HW,2013-10-11 04:34:00,
2013-10-11 00:39:00,56.5,55.1,29.93,SE,135,1.8,1.8,95,0.01,,,0.00,WUHU216HW,2013-10-11 04:39:00,
2013-10-11 00:44:00,56.5,55.1,29.93,South,180,1.1,1.8,95,0.01,,,0.00,WUHU216HW,2013-10-11 04:44:00,
2013-10-11 00:49:00,56.5,55.1,29.93,South,180,1.3,1.8,95,0.01,,,0.00,WUHU216HW,2013-10-11 04:49:00,
2013-10-11 00:55:00,56.5,55.1,29.93,SSE,158,0.2,1.3,95,0.00,,,0.00,WUHU216HW,2013-10-11 04:55:00,
2013-10-11 01:00:00,56.5,55.1,29.93,SSE,158,0.7,1.3,95,0.00,,,0.00,WUHU216HW,2013-10-11 05:00:00,
2013-10-11 01:05:00,56.7,55.3,29.92,SSE,158,0.0,1.6,95,0.00,,,0.00,WUHU216HW,2013-10-11 05:05:00,
2013-10-11 01:10:00,56.7,55.3,29.92,SSE,158,0.0,1.6,95,0.00,,,0.00,WUHU216HW,2013-10-11 05:10:00,
2013-10-11 01:15:00,56.7,55.3,29.92,SSE,158,0.0,0.0,95,0.00,,,0.00,WUHU216HW,2013-10-11 05:15:00,
2013-10-11 01:36:00,56.9,55.4,29.92,SE,135,1.1,1.1,95,0.00,,,0.00,WUHU216HW,2013-10-11 05:36:00,
2013-10-11 01:41:00,57.1,55.6,29.92,SSW,203,1.3,1.3,95,0.00,,,0.00,WUHU216HW,2013-10-11 05:41:00,
2013-10-11 01:46:00,57.1,55.6,29.92,SSW,203,1.3,1.3,95,0.00,,,0.00,WUHU216HW,2013-10-11 05:46:00,
2013-10-11 02:00:00,57.2,55.8,29.92,South,180,0.9,0.9,95,0.00,,,0.00,WUHU216HW,2013-10-11 06:00:00,
2013-10-11 02:05:00,57.2,55.8,29.92,SSE,158,1.1,1.1,95,0.00,,,0.00,WUHU216HW,2013-10-11 06:05:00,
2013-10-11 02:10:00,57.2,55.8,29.91,SSW,203,1.6,1.6,95,0.00,,,0.00,WUHU216HW,2013-10-11 06:10:00,
2013-10-11 02:15:00,57.4,56.0,29.92,South,180,0.4,1.6,95,0.00,,,0.00,WUHU216HW,2013-10-11 06:15:00,
2013-10-11 02:20:00,57.4,56.0,29.92,WSW,248,2.0,2.0,95,0.00,,,0.00,WUHU216HW,2013-10-11 06:20:00,
2013-10-11 02:25:00,57.4,56.0,29.91,SSE,158,0.9,2.0,95,0.00,,,0.00,WUHU216HW,2013-10-11 06:25:00,
2013-10-11 02:30:00,57.6,56.2,29.91,SW,225,1.1,2.0,95,0.00,,,0.00,WUHU216HW,2013-10-11 06:30:00,
2013-10-11 02:36:00,57.6,56.2,29.91,SW,225,1.1,1.1,95,0.00,,,0.00,WUHU216HW,2013-10-11 06:36:00,
2013-10-11 02:41:00,57.6,56.2,29.91,SSE,158,0.2,1.1,95,0.00,,,0.00,WUHU216HW,2013-10-11 06:41:00,
2013-10-11 02:46:00,57.6,56.2,29.91,SSE,158,0.7,1.6,95,0.00,,,0.00,WUHU216HW,2013-10-11 06:46:00,
2013-10-11 02:51:00,57.8,56.3,29.91,WSW,248,1.1,1.6,95,0.00,,,0.00,WUHU216HW,2013-10-11 06:51:00,
2013-10-11 02:56:00,57.8,56.3,29.91,South,180,0.4,1.1,95,0.00,,,0.00,WUHU216HW,2013-10-11 06:56:00,
2013-10-11 03:01:00,57.8,56.3,29.91,SSW,203,2.2,2.2,95,0.00,,,0.00,WUHU216HW,2013-10-11 07:01:00,
2013-10-11 03:06:00,58.0,56.5,29.90,North,0,0.0,2.2,95,0.00,,,0.00,WUHU216HW,2013-10-11 07:06:00,
2013-10-11 03:11:00,58.0,56.5,29.90,North,0,0.0,0.0,95,0.00,,,0.00,WUHU216HW,2013-10-11 07:11:00,
2013-10-11 03:16:00,58.0,56.5,29.90,North,0,0.0,0.0,95,0.00,,,0.00,WUHU216HW,2013-10-11 07:16:00,
2013-10-11 03:21:00,58.1,56.7,29.90,North,0,0.0,0.0,95,0.00,,,0.00,WUHU216HW,2013-10-11 07:21:00,
2013-10-11 03:27:00,58.0,56.5,29.90,North,0,0.0,0.0,95,0.00,,,0.00,WUHU216HW,2013-10-11 07:27:00,
2013-10-11 03:32:00,58.0,56.5,29.90,North,0,0.0,0.0,95,0.00,,,0.00,WUHU216HW,2013-10-11 07:32:00,
2013-10-11 03:37:00,58.0,56.5,29.90,North,0,0.0,0.0,95,0.00,,,0.00,WUHU216HW,2013-10-11 07:37:00,
2013-10-11 03:42:00,58.0,56.5,29.90,North,0,0.0,0.0,95,0.00,,,0.00,WUHU216HW,2013-10-11 07:42:00,
2013-10-11 03:47:00,58.0,56.5,29.90,North,0,0.0,0.0,95,0.00,,,0.00,WUHU216HW,2013-10-11 07:47:00,
2013-10-11 03:52:00,58.0,56.5,29.90,North,0,0.0,0.0,95,0.00,,,0.00,WUHU216HW,2013-10-11 07:52:00,
2013-10-11 03:57:00,58.1,56.7,29.90,North,0,0.0,0.0,95,0.00,,,0.00,WUHU216HW,2013-10-11 07:57:00,
2013-10-11 04:02:00,58.1,56.7,29.90,North,0,0.0,0.0,95,0.00,,,0.00,WUHU216HW,2013-10-11 08:02:00,
2013-10-11 04:07:00,58.1,56.7,29.90,North,0,0.0,0.0,95,0.00,,,0.00,WUHU216HW,2013-10-11 08:07:00,
2013-10-11 04:12:00,58.1,56.7,29.90,North,0,0.0,0.0,95,0.00,,,0.00,WUHU216HW,2013-10-11 08:12:00,
2013-10-11 04:17:00,58.1,56.7,29.90,North,0,0.0,0.0,95,0.00,,,0.00,WUHU216HW,2013-10-11 08:17:00,
2013-10-11 04:23:00,58.1,56.7,29.90,North,0,0.0,0.0,95,0.00,,,0.00,WUHU216HW,2013-10-11 08:23:00,
2013-10-11 04:28:00,58.3,56.9,29.90,ESE,113,0.0,0.0,95,0.00,,,0.00,WUHU216HW,2013-10-11 08:28:00,
2013-10-11 04:33:00,58.1,56.7,29.90,SE,135,0.0,0.4,95,0.12,,,0.05,WUHU216HW,2013-10-11 08:33:00,
2013-10-11 04:38:00,58.1,56.7,29.90,ESE,113,1.1,1.1,95,0.15,,,0.15,WUHU216HW,2013-10-11 08:38:00,
2013-10-11 04:43:00,58.1,56.7,29.90,SE,135,0.0,1.1,95,0.15,,,0.15,WUHU216HW,2013-10-11 08:43:00,
2013-10-11 04:48:00,58.1,56.7,29.90,North,0,0.0,1.1,95,0.15,,,0.15,WUHU216HW,2013-10-11 08:48:00,
2013-10-11 04:53:00,58.1,56.7,29.90,North,0,0.0,0.0,95,0.15,,,0.15,WUHU216HW,2013-10-11 08:53:00,
2013-10-11 04:58:00,58.3,56.9,29.90,North,0,0.0,0.0,95,0.15,,,0.15,WUHU216HW,2013-10-11 08:58:00,
2013-10-11 05:03:00,58.3,56.9,29.90,North,0,0.0,0.0,95,0.15,,,0.15,WUHU216HW,2013-10-11 09:03:00,
2013-10-11 05:08:00,58.3,56.9,29.90,North,0,0.0,0.0,95,0.15,,,0.15,WUHU216HW,2013-10-11 09:08:00,
2013-10-11 05:13:00,58.1,56.7,29.90,North,0,0.0,0.0,95,0.15,,,0.15,WUHU216HW,2013-10-11 09:13:00,
2013-10-11 05:18:00,58.1,56.7,29.90,North,0,0.0,0.0,95,0.15,,,0.15,WUHU216HW,2013-10-11 09:18:00,
2013-10-11 05:23:00,58.1,56.7,29.90,North,0,0.0,0.0,95,0.15,,,0.15,WUHU216HW,2013-10-11 09:23:00,
2013-10-11 05:28:00,58.1,56.7,29.90,North,0,0.0,0.0,95,0.10,,,0.15,WUHU216HW,2013-10-11 09:28:00,
2013-10-11 05:34:00,58.1,56.7,29.90,North,0,0.0,0.0,95,0.03,,,0.15,WUHU216HW,2013-10-11 09:34:00,
2013-10-11 05:39:00,58.1,56.7,29.90,North,0,0.0,0.0,95,0.00,,,0.15,WUHU216HW,2013-10-11 09:39:00,
2013-10-11 05:44:00,58.1,56.7,29.90,North,0,0.0,0.0,95,0.00,,,0.15,WUHU216HW,2013-10-11 09:44:00,
2013-10-11 05:49:00,58.1,56.7,29.90,North,0,0.0,0.0,95,0.00,,,0.15,WUHU216HW,2013-10-11 09:49:00,
2013-10-11 05:54:00,58.1,56.7,29.91,North,0,0.0,0.0,95,0.00,,,0.15,WUHU216HW,2013-10-11 09:54:00,
2013-10-11 05:59:00,58.1,56.7,29.91,North,0,0.0,0.0,95,0.00,,,0.15,WUHU216HW,2013-10-11 09:59:00,
2013-10-11 06:04:00,58.1,56.7,29.91,North,0,0.0,0.0,95,0.00,,,0.15,WUHU216HW,2013-10-11 10:04:00,
2013-10-11 06:09:00,58.3,56.9,29.91,North,0,0.0,0.0,95,0.00,,,0.15,WUHU216HW,2013-10-11 10:09:00,
2013-10-11 06:14:00,58.3,56.9,29.91,North,0,0.0,0.0,95,0.00,,,0.15,WUHU216HW,2013-10-11 10:14:00,
2013-10-11 06:19:00,58.3,56.9,29.91,North,0,0.0,0.0,95,0.00,,,0.15,WUHU216HW,2013-10-11 10:19:00,
2013-10-11 06:24:00,58.3,56.9,29.91,North,0,0.0,0.0,95,0.00,,,0.15,WUHU216HW,2013-10-11 10:24:00,
2013-10-11 06:29:00,58.3,56.9,29.91,North,0,0.0,0.0,95,0.00,,,0.15,WUHU216HW,2013-10-11 10:29:00,
2013-10-11 06:34:00,58.1,56.7,29.91,North,0,0.0,0.0,95,0.00,,,0.15,WUHU216HW,2013-10-11 10:34:00,
2013-10-11 06:39:00,58.1,56.7,29.91,North,0,0.0,0.0,95,0.00,,,0.15,WUHU216HW,2013-10-11 10:39:00,
2013-10-11 06:45:00,58.1,56.7,29.91,North,0,0.0,0.0,95,0.00,,,0.15,WUHU216HW,2013-10-11 10:45:00,
2013-10-11 06:50:00,58.1,56.7,29.91,North,0,0.0,0.0,95,0.00,,,0.15,WUHU216HW,2013-10-11 10:50:00,
2013-10-11 06:55:00,58.1,56.7,29.91,North,0,0.0,0.0,95,0.00,,,0.15,WUHU216HW,2013-10-11 10:55:00,
2013-10-11 07:00:00,58.1,56.7,29.91,North,0,0.0,0.0,95,0.00,,,0.15,WUHU216HW,2013-10-11 11:00:00,
2013-10-11 07:05:00,58.1,56.7,29.91,North,0,0.0,0.0,95,0.00,,,0.15,WUHU216HW,2013-10-11 11:05:00,
2013-10-11 07:10:00,58.1,56.7,29.91,North,0,0.0,0.0,95,0.00,,,0.15,WUHU216HW,2013-10-11 11:10:00,
2013-10-11 07:15:00,58.1,56.7,29.91,North,0,0.0,0.0,95,0.00,,,0.15,WUHU216HW,2013-10-11 11:15:00,
2013-10-11 07:20:00,58.1,56.7,29.91,North,0,0.0,0.0,95,0.00,,,0.15,WUHU216HW,2013-10-11 11:20:00,
2013-10-11 07:25:00,58.3,56.9,29.91,East,90,0.7,0.7,95,0.00,,,0.15,WUHU216HW,2013-10-11 11:25:00,
2013-10-11 07:30:00,58.3,56.9,29.91,SSE,158,0.2,0.7,95,0.00,,,0.15,WUHU216HW,2013-10-11 11:30:00,
2013-10-11 07:35:00,58.1,56.7,29.91,South,180,0.7,0.7,95,0.00,,,0.15,WUHU216HW,2013-10-11 11:35:00,
2013-10-11 07:40:00,58.1,56.7,29.91,South,180,0.0,0.7,95,0.00,,,0.15,WUHU216HW,2013-10-11 11:40:00,
2013-10-11 07:45:00,58.1,56.7,29.91,South,180,0.0,0.7,95,0.00,,,0.15,WUHU216HW,2013-10-11 11:45:00,
2013-10-11 08:00:00,58.3,56.9,29.91,North,0,0.0,0.0,95,0.02,,,0.15,WUHU216HW,2013-10-11 12:00:00,
2013-10-11 08:05:00,58.3,56.9,29.91,North,0,0.0,0.0,95,0.03,,,0.18,WUHU216HW,2013-10-11 12:05:00,
2013-10-11 08:10:00,58.3,56.9,29.91,North,0,0.0,0.0,95,0.04,,,0.20,WUHU216HW,2013-10-11 12:10:00,
2013-10-11 08:15:00,58.1,56.7,29.92,North,0,0.0,0.0,95,0.04,,,0.20,WUHU216HW,2013-10-11 12:15:00,
2013-10-11 08:20:00,58.1,56.7,29.92,North,0,0.0,0.0,95,0.06,,,0.22,WUHU216HW,2013-10-11 12:20:00,
2013-10-11 08:25:00,58.1,56.7,29.92,North,0,0.0,0.0,95,0.07,,,0.22,WUHU216HW,2013-10-11 12:25:00,
2013-10-11 08:30:00,58.1,56.7,29.92,North,0,0.0,0.0,95,0.09,,,0.25,WUHU216HW,2013-10-11 12:30:00,
2013-10-11 08:35:00,58.1,56.7,29.92,North,0,0.0,0.0,95,0.12,,,0.27,WUHU216HW,2013-10-11 12:35:00,
2013-10-11 08:40:00,58.1,56.7,29.92,North,0,0.0,0.0,95,0.12,,,0.28,WUHU216HW,2013-10-11 12:40:00,
2013-10-11 08:45:00,58.3,56.9,29.92,North,0,0.0,0.0,95,0.11,,,0.28,WUHU216HW,2013-10-11 12:45:00,
2013-10-11 08:51:00,58.5,57.1,29.92,North,0,0.0,0.0,95,0.11,,,0.28,WUHU216HW,2013-10-11 12:51:00,
2013-10-11 08:56:00,58.5,57.1,29.92,North,0,0.0,0.0,95,0.11,,,0.29,WUHU216HW,2013-10-11 12:56:00,
2013-10-11 09:01:00,58.5,57.1,29.92,North,0,0.0,0.0,95,0.10,,,0.29,WUHU216HW,2013-10-11 13:01:00,
2013-10-11 09:06:00,58.9,57.4,29.92,North,0,0.0,0.0,95,0.09,,,0.29,WUHU216HW,2013-10-11 13:06:00,
2013-10-11 09:11:00,58.9,57.4,29.92,North,0,0.0,0.0,95,0.09,,,0.29,WUHU216HW,2013-10-11 13:11:00,
2013-10-11 09:16:00,59.0,57.6,29.92,North,0,0.0,0.0,95,0.07,,,0.29,WUHU216HW,2013-10-11 13:16:00,
2013-10-11 09:21:00,59.0,57.6,29.92,North,0,0.0,0.0,95,0.06,,,0.29,WUHU216HW,2013-10-11 13:21:00,
2013-10-11 09:26:00,59.0,57.6,29.92,North,0,0.0,0.0,95,0.04,,,0.29,WUHU216HW,2013-10-11 13:26:00,
2013-10-11 09:31:00,59.0,57.6,29.92,North,0,0.0,0.0,95,0.02,,,0.29,WUHU216HW,2013-10-11 13:31:00,
2013-10-11 09:36:00,59.0,57.6,29.92,North,0,0.0,0.0,95,0.01,,,0.29,WUHU216HW,2013-10-11 13:36:00,
2013-10-11 09:41:00,59.2,57.8,29.92,North,0,0.0,0.0,95,0.01,,,0.29,WUHU216HW,2013-10-11 13:41:00,
2013-10-11 09:46:00,59.2,57.8,29.92,North,0,0.0,0.0,95,0.01,,,0.29,WUHU216HW,2013-10-11 13:46:00,
2013-10-11 09:51:00,59.4,58.0,29.92,North,0,0.0,0.0,95,0.01,,,0.29,WUHU216HW,2013-10-11 13:51:00,
2013-10-11 09:57:00,59.6,58.1,29.92,North,0,0.0,0.0,95,0.00,,,0.29,WUHU216HW,2013-10-11 13:57:00,
2013-10-11 10:02:00,59.6,58.1,29.92,North,0,0.0,0.0,95,0.00,,,0.29,WUHU216HW,2013-10-11 14:02:00,
2013-10-11 10:07:00,59.6,58.1,29.92,North,0,0.0,0.0,95,0.00,,,0.29,WUHU216HW,2013-10-11 14:07:00,
2013-10-11 10:12:00,59.8,58.6,29.92,North,0,0.0,0.0,96,0.00,,,0.29,WUHU216HW,2013-10-11 14:12:00,
2013-10-11 10:17:00,59.8,58.6,29.92,SSW,203,0.2,0.2,96,0.00,,,0.29,WUHU216HW,2013-10-11 14:17:00,
2013-10-11 10:22:00,59.8,58.6,29.93,SSW,203,0.9,0.9,96,0.00,,,0.29,WUHU216HW,2013-10-11 14:22:00,
2013-10-11 10:27:00,59.9,58.8,29.93,North,0,0.0,0.9,96,0.04,,,0.33,WUHU216HW,2013-10-11 14:27:00,
2013-10-11 10:32:00,60.1,59.0,29.93,North,0,0.0,0.9,96,0.08,,,0.37,WUHU216HW,2013-10-11 14:32:00,
2013-10-11 10:37:00,60.1,59.0,29.93,North,0,0.0,0.0,96,0.08,,,0.37,WUHU216HW,2013-10-11 14:37:00,
2013-10-11 10:42:00,60.1,59.0,29.93,North,0,0.0,0.0,96,0.08,,,0.37,WUHU216HW,2013-10-11 14:42:00,
2013-10-11 10:47:00,60.1,59.0,29.93,North,0,0.0,0.0,96,0.10,,,0.39,WUHU216HW,2013-10-11 14:47:00,
2013-10-11 10:52:00,60.3,59.1,29.93,North,0,0.0,0.0,96,0.11,,,0.40,WUHU216HW,2013-10-11 14:52:00,
2013-10-11 10:57:00,60.3,59.1,29.93,North,0,0.0,0.0,96,0.12,,,0.41,WUHU216HW,2013-10-11 14:57:00,
2013-10-11 11:03:00,60.3,59.1,29.93,North,0,0.0,0.0,96,0.13,,,0.42,WUHU216HW,2013-10-11 15:03:00,
2013-10-11 11:08:00,60.5,59.3,29.92,North,0,0.0,0.0,96,0.17,,,0.46,WUHU216HW,2013-10-11 15:08:00,
2013-10-11 11:13:00,60.7,59.5,29.92,North,0,0.0,0.0,96,0.19,,,0.48,WUHU216HW,2013-10-11 15:13:00,
2013-10-11 11:18:00,60.7,59.5,29.92,North,0,0.0,0.0,96,0.19,,,0.48,WUHU216HW,2013-10-11 15:18:00,
2013-10-11 11:43:00,61.2,60.0,29.92,North,0,0.0,0.0,96,0.16,,,0.48,WUHU216HW,2013-10-11 15:43:00,
2013-10-11 11:48:00,61.2,60.0,29.92,North,0,0.0,0.0,96,0.16,,,0.48,WUHU216HW,2013-10-11 15:48:00,
2013-10-11 12:00:00,61.6,60.4,29.92,North,0,0.0,0.0,96,0.23,,,0.53,WUHU216HW,2013-10-11 16:00:00,
2013-10-11 12:05:00,61.6,60.4,29.92,North,0,0.0,0.0,96,0.28,,,0.73,WUHU216HW,2013-10-11 16:05:00,
2013-10-11 12:10:00,61.6,60.4,29.92,North,0,0.0,0.0,96,0.28,,,0.76,WUHU216HW,2013-10-11 16:10:00,
2013-10-11 12:15:00,61.7,60.6,29.92,North,0,0.0,0.0,96,0.28,,,0.76,WUHU216HW,2013-10-11 16:15:00,
2013-10-11 12:20:00,61.9,60.8,29.92,North,0,0.0,0.0,96,0.26,,,0.76,WUHU216HW,2013-10-11 16:20:00,
2013-10-11 12:25:00,61.9,60.8,29.92,North,0,0.0,0.0,96,0.28,,,0.78,WUHU216HW,2013-10-11 16:25:00,
2013-10-11 12:30:00,61.9,60.8,29.92,North,0,0.0,0.0,96,0.26,,,0.78,WUHU216HW,2013-10-11 16:30:00,
2013-10-11 12:35:00,61.9,60.8,29.92,North,0,0.0,0.0,96,0.28,,,0.78,WUHU216HW,2013-10-11 16:35:00,
2013-10-11 12:40:00,61.9,60.8,29.92,North,0,0.0,0.0,96,0.25,,,0.78,WUHU216HW,2013-10-11 16:40:00,
2013-10-11 12:46:00,61.9,60.8,29.92,North,0,0.0,0.0,96,0.16,,,0.78,WUHU216HW,2013-10-11 16:46:00,
2013-10-11 12:51:00,61.9,60.8,29.92,North,0,0.0,0.0,96,0.15,,,0.78,WUHU216HW,2013-10-11 16:51:00,
2013-10-11 12:56:00,61.9,60.8,29.92,North,0,0.0,0.0,96,0.14,,,0.80,WUHU216HW,2013-10-11 16:56:00,
2013-10-11 13:01:00,61.9,60.8,29.92,North,0,0.0,0.0,96,0.08,,,0.81,WUHU216HW,2013-10-11 17:01:00,
2013-10-11 13:06:00,62.3,61.1,29.92,North,0,0.0,0.0,96,0.09,,,0.83,WUHU216HW,2013-10-11 17:06:00,
2013-10-11 13:11:00,62.3,61.1,29.92,South,180,1.8,1.8,96,0.06,,,0.83,WUHU216HW,2013-10-11 17:11:00,
2013-10-11 13:16:00,62.3,61.1,29.91,South,180,0.4,1.8,96,0.06,,,0.83,WUHU216HW,2013-10-11 17:16:00,
2013-10-11 13:21:00,62.3,61.1,29.91,SSE,158,1.1,1.8,96,0.05,,,0.83,WUHU216HW,2013-10-11 17:21:00,
2013-10-11 13:26:00,62.1,60.9,29.91,SSE,158,1.1,1.1,96,0.06,,,0.83,WUHU216HW,2013-10-11 17:26:00,
2013-10-11 13:31:00,62.1,60.9,29.91,SSW,203,0.0,1.1,96,0.05,,,0.83,WUHU216HW,2013-10-11 17:31:00,
2013-10-11 13:36:00,62.1,60.9,29.91,SE,135,0.0,1.1,96,0.05,,,0.83,WUHU216HW,2013-10-11 17:36:00,
2013-10-11 13:41:00,62.3,61.1,29.91,South,180,1.8,1.8,96,0.05,,,0.83,WUHU216HW,2013-10-11 17:41:00,
2013-10-11 13:47:00,62.3,61.1,29.91,SW,225,0.7,1.8,96,0.05,,,0.83,WUHU216HW,2013-10-11 17:47:00,
2013-10-11 13:52:00,62.3,61.1,29.91,SSW,203,0.9,1.8,96,0.04,,,0.83,WUHU216HW,2013-10-11 17:52:00,
2013-10-11 13:57:00,62.3,61.1,29.90,South,180,0.2,1.1,96,0.02,,,0.83,WUHU216HW,2013-10-11 17:57:00,
2013-10-11 14:02:00,62.3,61.1,29.90,NNE,23,2.0,2.0,96,0.01,,,0.83,WUHU216HW,2013-10-11 18:02:00,
2013-10-11 14:07:00,62.5,61.3,29.90,SE,135,1.3,2.0,96,0.02,,,0.85,WUHU216HW,2013-10-11 18:07:00,
2013-10-11 14:12:00,62.6,61.5,29.90,SSW,203,0.9,1.3,96,0.02,,,0.85,WUHU216HW,2013-10-11 18:12:00,
2013-10-11 14:17:00,62.6,61.5,29.90,NNE,23,0.7,1.3,96,0.02,,,0.85,WUHU216HW,2013-10-11 18:17:00,
2013-10-11 14:22:00,62.6,61.5,29.90,South,180,0.4,0.9,96,0.02,,,0.85,WUHU216HW,2013-10-11 18:22:00,
2013-10-11 14:27:00,62.5,61.3,29.90,South,180,0.0,0.7,96,0.01,,,0.85,WUHU216HW,2013-10-11 18:27:00,
2013-10-11 14:32:00,62.3,61.1,29.90,SSW,203,0.4,0.4,96,0.01,,,0.85,WUHU216HW,2013-10-11 18:32:00,
2013-10-11 14:37:00,62.3,61.1,29.90,SSE,158,1.1,1.1,96,0.01,,,0.85,WUHU216HW,2013-10-11 18:37:00,
2013-10-11 14:42:00,62.3,61.1,29.90,SW,225,0.9,1.8,96,0.01,,,0.85,WUHU216HW,2013-10-11 18:42:00,
2013-10-11 14:48:00,62.1,60.9,29.90,South,180,0.9,1.8,96,0.01,,,0.85,WUHU216HW,2013-10-11 18:48:00,
2013-10-11 14:53:00,62.1,60.9,29.90,SSW,203,0.4,0.9,96,0.01,,,0.85,WUHU216HW,2013-10-11 18:53:00,
2013-10-11 14:58:00,62.1,60.9,29.90,SSW,203,1.1,1.1,96,0.01,,,0.85,WUHU216HW,2013-10-11 18:58:00,
2013-10-11 15:03:00,62.3,61.1,29.90,NNE,23,0.4,1.1,96,0.00,,,0.85,WUHU216HW,2013-10-11 19:03:00,
2013-10-11 15:08:00,62.3,61.1,29.89,SSW,203,0.4,1.1,96,0.00,,,0.85,WUHU216HW,2013-10-11 19:08:00,
2013-10-11 15:13:00,62.3,61.1,29.90,SE,135,0.0,0.4,96,0.00,,,0.85,WUHU216HW,2013-10-11 19:13:00,
2013-10-11 15:18:00,62.3,61.1,29.89,ESE,113,1.1,1.8,96,0.00,,,0.85,WUHU216HW,2013-10-11 19:18:00,
2013-10-11 15:23:00,62.3,61.1,29.90,SSW,203,0.4,1.8,96,0.00,,,0.85,WUHU216HW,2013-10-11 19:23:00,
2013-10-11 15:28:00,62.5,61.3,29.90,South,180,0.4,1.1,96,0.00,,,0.85,WUHU216HW,2013-10-11 19:28:00,
2013-10-11 15:33:00,62.6,61.2,29.90,SE,135,0.9,1.3,95,0.00,,,0.85,WUHU216HW,2013-10-11 19:33:00,
2013-10-11 15:39:00,62.5,61.0,29.90,ESE,113,2.5,2.5,95,0.00,,,0.85,WUHU216HW,2013-10-11 19:39:00,
2013-10-11 15:44:00,62.6,61.2,29.90,SSE,158,1.3,2.5,95,0.00,,,0.85,WUHU216HW,2013-10-11 19:44:00,
2013-10-11 15:49:00,62.5,61.0,29.90,South,180,0.4,2.5,95,0.00,,,0.85,WUHU216HW,2013-10-11 19:49:00,
2013-10-11 15:54:00,62.3,60.8,29.90,SSW,203,1.6,1.6,95,0.00,,,0.85,WUHU216HW,2013-10-11 19:54:00,
2013-10-11 15:59:00,62.3,60.8,29.90,SE,135,0.9,1.6,95,0.00,,,0.85,WUHU216HW,2013-10-11 19:59:00,
2013-10-11 16:04:00,62.3,60.8,29.90,SSE,158,0.4,1.6,95,0.00,,,0.85,WUHU216HW,2013-10-11 20:04:00,
2013-10-11 16:09:00,62.1,60.7,29.90,South,180,1.6,1.6,95,0.00,,,0.85,WUHU216HW,2013-10-11 20:09:00,
2013-10-11 16:14:00,61.9,60.5,29.90,SSE,158,0.7,1.6,95,0.00,,,0.85,WUHU216HW,2013-10-11 20:14:00,
2013-10-11 16:19:00,61.9,60.5,29.90,South,180,0.7,1.6,95,0.00,,,0.85,WUHU216HW,2013-10-11 20:19:00,
2013-10-11 16:24:00,61.9,60.5,29.90,South,180,0.7,0.7,95,0.00,,,0.85,WUHU216HW,2013-10-11 20:24:00,
2013-10-11 16:49:00,61.7,60.3,29.90,SSW,203,0.9,0.9,95,0.07,,,0.85,WUHU216HW,2013-10-11 20:49:00,
2013-10-11 16:54:00,61.9,60.5,29.91,North,0,0.0,0.9,95,0.09,,,0.94,WUHU216HW,2013-10-11 20:54:00,
2013-10-11 16:59:00,61.9,60.8,29.90,North,0,0.0,0.9,96,0.11,,,0.96,WUHU216HW,2013-10-11 20:59:00,
2013-10-11 17:04:00,61.9,60.8,29.90,SE,135,0.4,0.4,96,0.14,,,0.98,WUHU216HW,2013-10-11 21:04:00,
2013-10-11 17:09:00,61.9,60.5,29.90,SSE,158,0.0,0.4,95,0.15,,,1.00,WUHU216HW,2013-10-11 21:09:00,
2013-10-11 17:15:00,61.7,60.3,29.91,SSW,203,0.0,0.4,95,0.15,,,1.00,WUHU216HW,2013-10-11 21:15:00,
2013-10-11 17:20:00,61.7,60.3,29.90,SSW,203,0.7,0.7,95,0.15,,,1.00,WUHU216HW,2013-10-11 21:20:00,
2013-10-11 17:25:00,61.6,60.1,29.91,SSW,203,0.4,0.7,95,0.16,,,1.01,WUHU216HW,2013-10-11 21:25:00,
2013-10-11 17:30:00,61.6,60.1,29.91,SSE,158,0.4,0.7,95,0.16,,,1.01,WUHU216HW,2013-10-11 21:30:00,
2013-10-11 17:35:00,61.6,60.1,29.91,South,180,0.4,0.4,95,0.15,,,1.01,WUHU216HW,2013-10-11 21:35:00,
2013-10-11 17:40:00,61.6,60.1,29.91,South,180,0.0,0.4,95,0.15,,,1.02,WUHU216HW,2013-10-11 21:40:00,
2013-10-11 17:45:00,61.6,60.1,29.91,SSW,203,0.0,0.4,95,0.12,,,1.02,WUHU216HW,2013-10-11 21:45:00,
2013-10-11 17:50:00,61.7,60.3,29.91,SSE,158,0.0,0.4,95,0.11,,,1.03,WUHU216HW,2013-10-11 21:50:00,
2013-10-11 17:55:00,61.7,60.3,29.91,SSE,158,0.4,0.4,95,0.09,,,1.03,WUHU216HW,2013-10-11 21:55:00,
2013-10-11 18:00:00,61.7,60.3,29.91,SW,225,1.3,1.3,95,0.04,,,1.03,WUHU216HW,2013-10-11 22:00:00,
2013-10-11 18:06:00,61.7,60.3,29.91,SE,135,0.7,1.3,95,0.04,,,1.04,WUHU216HW,2013-10-11 22:06:00,
2013-10-11 18:11:00,61.7,60.3,29.91,SSE,158,0.2,1.1,95,0.06,,,1.04,WUHU216HW,2013-10-11 22:11:00,
2013-10-11 18:16:00,61.7,60.6,29.91,SSE,158,0.2,1.1,96,0.08,,,1.08,WUHU216HW,2013-10-11 22:16:00,
2013-10-11 18:21:00,61.7,60.6,29.92,SSW,203,1.1,1.1,96,0.07,,,1.08,WUHU216HW,2013-10-11 22:21:00,
2013-10-11 18:26:00,61.9,60.8,29.92,SSW,203,0.4,1.1,96,0.07,,,1.08,WUHU216HW,2013-10-11 22:26:00,
2013-10-11 18:31:00,61.9,60.8,29.92,South,180,0.4,0.4,96,0.07,,,1.08,WUHU216HW,2013-10-11 22:31:00,
2013-10-11 18:36:00,61.9,60.8,29.92,South,180,0.0,0.4,96,0.06,,,1.08,WUHU216HW,2013-10-11 22:36:00,
2013-10-11 18:41:00,62.1,60.9,29.92,South,180,1.6,1.6,96,0.06,,,1.08,WUHU216HW,2013-10-11 22:41:00,
2013-10-11 18:46:00,62.1,60.9,29.92,South,180,0.4,1.6,96,0.06,,,1.08,WUHU216HW,2013-10-11 22:46:00,
2013-10-11 18:52:00,62.1,60.9,29.92,SE,135,1.3,1.6,96,0.05,,,1.08,WUHU216HW,2013-10-11 22:52:00,
2013-10-11 18:57:00,62.1,60.9,29.92,SSE,158,0.2,1.3,96,0.07,,,1.10,WUHU216HW,2013-10-11 22:57:00,
2013-10-11 19:02:00,62.1,60.9,29.92,South,180,0.0,1.3,96,0.08,,,1.11,WUHU216HW,2013-10-11 23:02:00,
2013-10-11 19:07:00,62.3,61.1,29.92,SSE,158,0.0,0.2,96,0.08,,,1.12,WUHU216HW,2013-10-11 23:07:00,
2013-10-11 19:12:00,62.1,60.9,29.93,South,180,0.7,1.1,96,0.04,,,1.12,WUHU216HW,2013-10-11 23:12:00,
2013-10-11 19:17:00,62.3,61.1,29.93,SSW,203,0.7,1.1,96,0.05,,,1.13,WUHU216HW,2013-10-11 23:17:00,
2013-10-11 19:22:00,62.1,60.9,29.93,SW,225,0.0,0.7,96,0.06,,,1.14,WUHU216HW,2013-10-11 23:22:00,
2013-10-11 19:27:00,62.1,60.9,29.93,SW,225,0.4,0.7,96,0.07,,,1.15,WUHU216HW,2013-10-11 23:27:00,
2013-10-11 19:32:00,62.3,61.1,29.93,North,0,0.0,0.4,96,0.07,,,1.15,WUHU216HW,2013-10-11 23:32:00,
2013-10-11 19:37:00,62.3,61.1,29.94,North,0,0.0,0.0,96,0.08,,,1.16,WUHU216HW,2013-10-11 23:37:00,
2013-10-11 19:42:00,62.3,61.1,29.94,North,0,0.4,0.4,96,0.09,,,1.17,WUHU216HW,2013-10-11 23:42:00,
2013-10-11 19:48:00,62.3,61.1,29.94,SE,135,0.2,0.7,96,0.15,,,1.18,WUHU216HW,2013-10-11 23:48:00,
2013-10-11 19:53:00,62.1,60.9,29.94,SE,135,0.0,0.7,96,0.21,,,1.31,WUHU216HW,2013-10-11 23:53:00,
2013-10-11 19:58:00,62.1,60.9,29.94,South,180,0.7,0.7,96,0.22,,,1.33,WUHU216HW,2013-10-11 23:58:00,
2013-10-11 20:03:00,62.1,60.9,29.94,South,180,1.1,1.1,96,0.23,,,1.35,WUHU216HW,2013-10-12 00:03:00,
2013-10-11 20:08:00,62.1,60.9,29.94,South,180,1.1,1.1,96,0.23,,,1.35,WUHU216HW,2013-10-12 00:08:00,
2013-10-11 20:30:00,61.9,60.8,29.95,SSW,203,0.0,0.0,96,0.40,,,1.35,WUHU216HW,2013-10-12 00:30:00,
2013-10-11 20:35:00,62.1,60.9,29.95,SSE,158,0.7,0.9,96,0.48,,,1.55,WUHU216HW,2013-10-12 00:35:00,
2013-10-11 20:40:00,61.9,60.8,29.95,SSW,203,0.4,0.9,96,0.48,,,1.66,WUHU216HW,2013-10-12 00:40:00,
2013-10-11 20:45:00,61.9,60.8,29.94,SSE,158,0.4,0.7,96,0.50,,,1.73,WUHU216HW,2013-10-12 00:45:00,
2013-10-11 20:50:00,61.9,60.8,29.94,SSE,158,0.7,1.1,96,0.46,,,1.77,WUHU216HW,2013-10-12 00:50:00,
2013-10-11 22:17:00,62.1,60.9,29.95,SW,225,1.8,1.8,96,0.25,,,1.77,WUHU216HW,2013-10-12 02:17:00,